Time;durP1;ratioP1;P1;durP2;ratioP2;P2;SDS_P1;SDS_P2;PMS_P1;PMS_P2;Temp;Humidity;BMP_temperature;BMP_pressure;BME280_temperature;BME280_humidity;BME280_pressure;Samples;Min_cycle;Max_cycle;Signal;HPM_P1;HPM_P2
2023/02/20 00:01:33;;;;;;;4.07;3.63;;;9.10;99.90;;;;;;5117173;28;20202;-83
2023/02/20 00:03:59;;;;;;;4.10;3.70;;;9.10;99.90;;;;;;5117206;28;20659;-82
2023/02/20 00:06:25;;;;;;;3.77;3.47;;;9.10;99.90;;;;;;5098830;28;20931;-83
2023/02/20 00:08:50;;;;;;;3.72;3.40;;;9.10;99.90;;;;;;5098594;28;20549;-83
2023/02/20 00:11:17;;;;;;;4.13;3.45;;;9.10;99.90;;;;;;5098985;28;20182;-82
2023/02/20 00:13:47;;;;;;;3.50;3.20;;;9.00;99.90;;;;;;5099600;28;20315;-83
2023/02/20 00:16:13;;;;;;;4.93;4.05;;;9.00;99.90;;;;;;5098631;28;20180;-83
2023/02/20 00:18:38;;;;;;;6.30;4.30;;;9.00;99.90;;;;;;5098479;28;20210;-82
2023/02/20 00:21:05;;;;;;;5.60;4.17;;;9.00;99.90;;;;;;5116750;28;20956;-83
2023/02/20 00:23:32;;;;;;;4.72;4.00;;;9.00;99.90;;;;;;5116462;28;20192;-83
2023/02/20 00:25:58;;;;;;;5.07;4.38;;;8.90;99.90;;;;;;5116696;28;20228;-83
2023/02/20 00:28:24;;;;;;;3.80;3.50;;;8.90;99.90;;;;;;5116775;28;20267;-83
2023/02/20 00:30:50;;;;;;;4.88;3.60;;;8.90;99.90;;;;;;5098416;28;20195;-82
2023/02/20 00:33:16;;;;;;;4.50;4.10;;;8.90;99.90;;;;;;5098409;28;20715;-83
2023/02/20 00:35:42;;;;;;;4.97;4.33;;;8.80;99.90;;;;;;5116755;28;20452;-83
2023/02/20 00:38:08;;;;;;;4.37;3.97;;;8.80;99.90;;;;;;5098014;28;20199;-83
2023/02/20 00:40:33;;;;;;;4.10;3.70;;;8.80;99.90;;;;;;5098175;28;20412;-83
2023/02/20 00:42:59;;;;;;;5.17;4.37;;;8.80;99.90;;;;;;5116184;28;20184;-82
2023/02/20 00:45:25;;;;;;;5.97;4.10;;;8.70;99.90;;;;;;5116336;28;20176;-82
2023/02/20 00:47:50;;;;;;;5.30;4.80;;;8.70;99.90;;;;;;5097969;28;20617;-83
2023/02/20 00:50:17;;;;;;;3.90;3.57;;;8.70;99.90;;;;;;5098320;28;20198;-83
2023/02/20 00:52:42;;;;;;;4.60;3.75;;;8.70;99.90;;;;;;5097790;28;20672;-82
2023/02/20 00:55:08;;;;;;;4.97;4.27;;;8.70;99.90;;;;;;5098170;28;20187;-83
2023/02/20 00:57:34;;;;;;;4.70;4.30;;;8.60;99.90;;;;;;5097675;28;20200;-82
2023/02/20 01:00:00;;;;;;;4.97;4.47;;;8.60;99.90;;;;;;5097662;28;20179;-83
2023/02/20 01:02:26;;;;;;;4.17;3.77;;;8.60;99.90;;;;;;5115826;28;20207;-83
2023/02/20 01:04:52;;;;;;;6.72;4.55;;;8.60;99.90;;;;;;5115914;28;20442;-83
2023/02/20 01:07:18;;;;;;;4.53;4.13;;;8.60;99.90;;;;;;5115887;28;20204;-83
2023/02/20 01:09:43;;;;;;;5.20;4.70;;;8.60;99.90;;;;;;5116183;28;20631;-83
2023/02/20 01:12:09;;;;;;;5.50;4.40;;;8.60;99.90;;;;;;5115722;28;20427;-83
2023/02/20 01:14:36;;;;;;;7.70;4.80;;;8.60;99.90;;;;;;5096986;28;20255;-83
2023/02/20 01:17:01;;;;;;;4.85;4.35;;;8.50;99.90;;;;;;5097304;28;20249;-83
2023/02/20 01:19:28;;;;;;;5.43;4.50;;;8.50;99.90;;;;;;5097224;28;20180;-83
2023/02/20 01:21:53;;;;;;;5.78;4.53;;;8.40;99.90;;;;;;5096825;28;20180;-83
2023/02/20 01:24:20;;;;;;;5.00;4.50;;;8.40;99.90;;;;;;5097608;28;20248;-82
2023/02/20 01:26:47;;;;;;;4.55;4.15;;;8.40;99.90;;;;;;5115432;28;20180;-83
2023/02/20 01:29:14;;;;;;;5.00;3.90;;;8.30;99.90;;;;;;5115780;28;20172;-83
2023/02/20 01:31:45;;;;;;;4.78;4.03;;;8.20;99.90;;;;;;5096914;28;20182;-83
2023/02/20 01:34:10;;;;;;;3.83;3.53;;;8.10;99.90;;;;;;5115253;28;20207;-83
2023/02/20 01:36:36;;;;;;;4.73;3.97;;;8.10;99.90;;;;;;5097024;28;20267;-84
2023/02/20 01:39:02;;;;;;;5.68;4.20;;;8.10;99.90;;;;;;5115526;28;20199;-83
2023/02/20 01:41:28;;;;;;;4.13;3.70;;;8.00;99.90;;;;;;5096933;28;20176;-82
2023/02/20 01:43:54;;;;;;;4.53;4.13;;;8.00;99.90;;;;;;5096954;28;20576;-83
2023/02/20 01:46:26;;;;;;;4.30;3.90;;;8.00;99.90;;;;;;5096862;28;20430;-82
2023/02/20 01:49:12;;;;;;;5.90;4.70;;;8.00;99.90;;;;;;5115183;28;20237;-83
2023/02/20 01:51:44;;;;;;;4.57;4.15;;;8.00;99.90;;;;;;5096810;28;20180;-83
2023/02/20 01:54:15;;;;;;;4.20;3.80;;;8.00;99.90;;;;;;5114862;28;20207;-82
2023/02/20 01:56:43;;;;;;;5.18;4.25;;;7.90;99.90;;;;;;5096544;28;20214;-82
2023/02/20 01:59:09;;;;;;;4.95;3.95;;;7.90;99.90;;;;;;5115205;28;20258;-83
2023/02/20 02:01:35;;;;;;;4.20;3.73;;;7.90;99.90;;;;;;5096900;28;20270;-81
2023/02/20 02:04:06;;;;;;;5.28;3.85;;;7.90;99.90;;;;;;5096464;28;20621;-82
2023/02/20 02:06:36;;;;;;;4.00;3.70;;;7.90;99.90;;;;;;5096503;28;20681;-83
2023/02/20 02:09:18;;;;;;;4.60;4.05;;;7.90;99.90;;;;;;5114605;28;20198;-82
2023/02/20 02:11:45;;;;;;;4.32;3.92;;;7.80;99.90;;;;;;5096385;28;20210;-83
2023/02/20 02:14:11;;;;;;;6.05;4.30;;;7.80;99.90;;;;;;5092700;28;20319;-83
2023/02/20 02:17:12;;;;;;;5.20;4.43;;;7.70;99.90;;;;;;5094325;28;20195;-83
2023/02/20 02:20:21;;;;;;;5.20;4.03;;;7.70;99.90;;;;;;5075578;28;20265;-83
2023/02/20 02:22:47;;;;;;;4.88;4.20;;;7.60;99.90;;;;;;5073685;28;20230;-83
2023/02/20 02:25:31;;;;;;;4.60;4.20;;;7.50;99.90;;;;;;5094090;28;20177;-82
2023/02/20 02:28:19;;;;;;;6.10;4.35;;;7.50;99.90;;;;;;5094150;28;20200;-83
2023/02/20 02:31:25;;;;;;;5.30;4.05;;;7.40;99.90;;;;;;5094132;28;20208;-83
2023/02/20 02:34:22;;;;;;;7.38;4.97;;;7.40;99.90;;;;;;5092131;28;20315;-82
2023/02/20 02:37:15;;;;;;;7.32;5.20;;;7.40;99.90;;;;;;5092637;28;20176;-83
2023/02/20 02:40:00;;;;;;;7.35;4.32;;;7.40;99.90;;;;;;5092788;28;20180;-82
2023/02/20 02:42:46;;;;;;;5.75;3.97;;;7.40;99.90;;;;;;5092595;28;20257;-82
2023/02/20 02:45:40;;;;;;;5.75;4.10;;;7.40;99.90;;;;;;5094569;28;20173;-83
2023/02/20 02:48:39;;;;;;;4.00;3.70;;;7.40;99.90;;;;;;5093884;28;20196;-82
2023/02/20 02:51:16;;;;;;;5.07;4.30;;;7.30;99.90;;;;;;5079246;28;20188;-82
2023/02/20 02:54:01;;;;;;;5.00;4.50;;;7.30;99.90;;;;;;5093669;28;20268;-82
2023/02/20 02:56:33;;;;;;;5.28;4.25;;;7.30;99.90;;;;;;5092399;28;20607;-83
2023/02/20 02:58:59;;;;;;;9.55;4.63;;;7.30;99.90;;;;;;5092613;28;20196;-82
2023/02/20 03:01:25;;;;;;;4.40;4.00;;;7.30;99.90;;;;;;5093897;28;20683;-82
2023/02/20 03:03:54;;;;;;;4.22;3.30;;;7.30;99.90;;;;;;5092354;28;20299;-82
2023/02/20 03:06:33;;;;;;;4.63;4.05;;;7.30;99.90;;;;;;5092468;28;20705;-83
2023/02/20 03:09:16;;;;;;;5.70;4.13;;;7.30;99.90;;;;;;5092396;28;20200;-83
2023/02/20 03:11:42;;;;;;;4.03;3.63;;;7.40;99.90;;;;;;5092322;28;20547;-82
2023/02/20 03:17:35;;;;;;;5.88;4.88;;;7.40;99.90;;;;;;5093901;28;20253;-83
2023/02/20 03:20:08;;;;;;;5.57;4.40;;;7.40;99.90;;;;;;5094035;28;20684;-83
2023/02/20 03:22:40;;;;;;;4.20;3.65;;;7.50;99.90;;;;;;5092182;28;20700;-83
2023/02/20 03:25:40;;;;;;;4.50;3.95;;;7.40;99.90;;;;;;5093975;28;20168;-82
2023/02/20 03:28:10;;;;;;;5.57;4.47;;;7.40;99.90;;;;;;5092104;28;20270;-83
2023/02/20 03:30:44;;;;;;;4.82;4.32;;;7.40;99.90;;;;;;5093417;28;20171;-82
2023/02/20 03:44:37;;;;;;;7.55;4.97;;;7.20;99.90;;;;;;5096527;28;20184;-82
2023/02/20 03:47:06;;;;;;;5.43;4.72;;;7.20;99.90;;;;;;5095686;28;20310;-82
2023/02/20 03:49:39;;;;;;;4.85;4.38;;;7.10;99.90;;;;;;5095882;28;20208;-82
2023/02/20 03:52:05;;;;;;;5.68;4.95;;;7.10;99.90;;;;;;5096973;28;20197;-82
2023/02/20 03:54:32;;;;;;;7.85;4.50;;;7.10;99.90;;;;;;5095745;28;20657;-83
2023/02/20 03:57:28;;;;;;;4.82;4.32;;;7.10;99.90;;;;;;5095692;28;20180;-83
2023/02/20 04:00:16;;;;;;;7.32;5.50;;;7.00;99.90;;;;;;5095824;28;20191;-83
2023/02/20 04:02:44;;;;;;;6.10;4.78;;;7.10;99.90;;;;;;5095480;28;20227;-82
2023/02/20 04:05:24;;;;;;;8.88;5.55;;;7.10;99.90;;;;;;5095786;28;20228;-82
2023/02/20 04:07:58;;;;;;;7.85;6.30;;;7.00;99.90;;;;;;5096703;28;20249;-82
2023/02/20 04:10:49;;;;;;;8.32;7.22;;;7.00;99.90;;;;;;5096619;28;20163;-82
2023/02/20 04:13:16;;;;;;;8.60;6.78;;;7.00;99.90;;;;;;5095491;28;20222;-82
2023/02/20 04:15:43;;;;;;;7.68;5.72;;;7.00;99.90;;;;;;5114552;28;20714;-82
2023/02/20 04:18:12;;;;;;;6.60;5.53;;;7.10;99.90;;;;;;5116903;28;20196;-82
2023/02/20 04:20:38;;;;;;;6.60;5.82;;;7.20;99.90;;;;;;5116798;28;20209;-82
2023/02/20 04:23:16;;;;;;;8.80;5.25;;;7.20;99.90;;;;;;5098449;28;20242;-82
2023/02/20 04:26:02;;;;;;;10.23;6.70;;;7.20;99.90;;;;;;5116727;28;20581;-82
2023/02/20 04:28:28;;;;;;;10.10;5.95;;;7.10;99.90;;;;;;5116738;28;20200;-82
2023/02/20 04:30:54;;;;;;;8.18;6.05;;;7.10;99.90;;;;;;5116569;28;20175;-82
2023/02/20 04:33:20;;;;;;;8.50;5.23;;;7.10;99.90;;;;;;5098117;28;20275;-83
2023/02/20 04:35:46;;;;;;;6.95;6.15;;;7.10;99.90;;;;;;5116824;28;20197;-82
2023/02/20 04:38:12;;;;;;;7.23;6.43;;;7.10;99.90;;;;;;5098089;28;20669;-82
2023/02/20 04:40:38;;;;;;;8.02;6.35;;;7.00;99.90;;;;;;5116429;28;20203;-82
2023/02/20 04:43:04;;;;;;;6.38;5.05;;;7.00;99.90;;;;;;5116602;28;20243;-83
2023/02/20 04:45:30;;;;;;;10.80;5.40;;;7.00;99.90;;;;;;5098007;28;20253;-82
2023/02/20 04:47:56;;;;;;;7.90;5.93;;;7.00;99.90;;;;;;5116230;28;20424;-83
2023/02/20 04:50:28;;;;;;;7.33;5.80;;;7.00;99.90;;;;;;5116074;28;20620;-82
2023/02/20 04:52:54;;;;;;;6.15;5.53;;;7.00;99.90;;;;;;5097716;28;20196;-82
2023/02/20 04:55:20;;;;;;;9.13;6.10;;;7.00;99.90;;;;;;5115059;28;20647;-82
2023/02/20 04:57:46;;;;;;;6.80;5.40;;;7.00;99.90;;;;;;5116033;28;20248;-82
2023/02/20 05:00:14;;;;;;;9.20;5.55;;;7.00;99.90;;;;;;5098096;28;20203;-83
2023/02/20 05:02:40;;;;;;;5.93;5.32;;;7.00;99.90;;;;;;5116275;28;20275;-82
2023/02/20 05:05:13;;;;;;;6.82;5.90;;;7.00;99.90;;;;;;5097952;28;20179;-83
2023/02/20 05:07:39;;;;;;;12.30;8.52;;;7.00;99.90;;;;;;5115840;28;20188;-82
2023/02/20 05:10:05;;;;;;;14.27;11.30;;;7.00;99.90;;;;;;5116382;28;20206;-82
2023/02/20 05:12:31;;;;;;;19.85;12.15;;;7.00;99.90;;;;;;5097298;28;20294;-82
2023/02/20 05:14:56;;;;;;;16.73;12.83;;;7.00;99.90;;;;;;5115669;28;20323;-82
2023/02/20 05:17:22;;;;;;;12.57;7.80;;;7.00;99.90;;;;;;5097362;28;20215;-82
2023/02/20 05:19:48;;;;;;;10.67;7.23;;;7.10;99.90;;;;;;5116011;28;20225;-82
2023/02/20 05:22:20;;;;;;;8.17;6.13;;;7.10;99.90;;;;;;5097300;28;20676;-83
2023/02/20 05:24:47;;;;;;;8.38;6.57;;;7.10;99.90;;;;;;5092122;28;20236;-83
2023/02/20 05:27:14;;;;;;;10.32;7.28;;;7.10;99.90;;;;;;5115367;28;20206;-82
2023/02/20 05:29:55;;;;;;;9.60;7.13;;;7.10;99.90;;;;;;5115252;28;20190;-82
2023/02/20 05:32:23;;;;;;;12.15;8.48;;;7.10;99.90;;;;;;5095486;28;20192;-82
2023/02/20 05:34:49;;;;;;;9.15;7.05;;;7.10;99.90;;;;;;5095660;28;20316;-82
2023/02/20 05:37:17;;;;;;;11.97;6.90;;;7.10;99.90;;;;;;5115100;28;20199;-82
2023/02/20 05:39:44;;;;;;;7.50;5.90;;;7.10;99.90;;;;;;5086707;28;20271;-83
2023/02/20 05:42:10;;;;;;;6.90;5.80;;;7.20;99.90;;;;;;5112619;28;20206;-83
2023/02/20 05:44:37;;;;;;;8.20;5.53;;;7.20;99.90;;;;;;5110794;28;20173;-83
2023/02/20 05:47:03;;;;;;;8.65;6.88;;;7.10;99.90;;;;;;5093620;28;20192;-82
2023/02/20 05:49:29;;;;;;;10.27;6.05;;;7.20;99.90;;;;;;5104953;28;20184;-83
2023/02/20 05:51:56;;;;;;;8.00;5.97;;;7.10;99.90;;;;;;5114629;28;20207;-82
2023/02/20 05:54:23;;;;;;;10.57;6.28;;;7.10;99.90;;;;;;5096164;28;20576;-83
2023/02/20 05:56:49;;;;;;;10.05;7.13;;;7.10;99.90;;;;;;5114508;28;20196;-83
2023/02/20 05:59:17;;;;;;;7.50;5.80;;;7.10;99.90;;;;;;5102166;28;20184;-83
2023/02/20 06:01:44;;;;;;;7.72;6.30;;;7.10;99.90;;;;;;5094179;28;20713;-83
2023/02/20 06:04:09;;;;;;;7.90;6.00;;;7.10;99.90;;;;;;5101957;28;20190;-83
2023/02/20 06:06:37;;;;;;;11.37;8.40;;;7.10;99.90;;;;;;5110981;28;20657;-83
2023/02/20 06:09:06;;;;;;;10.77;8.27;;;7.10;99.90;;;;;;5095618;28;20196;-83
2023/02/20 06:11:32;;;;;;;8.75;7.57;;;7.10;99.90;;;;;;5075939;28;20187;-83
2023/02/20 06:13:58;;;;;;;8.50;6.50;;;7.10;99.90;;;;;;5075750;28;20236;-83
2023/02/20 06:16:27;;;;;;;9.97;6.30;;;7.10;99.90;;;;;;5095858;28;20516;-83
2023/02/20 06:18:54;;;;;;;7.30;6.10;;;7.10;99.90;;;;;;5094426;28;20444;-83
2023/02/20 06:21:22;;;;;;;12.05;7.25;;;7.10;99.90;;;;;;5094138;28;20207;-82
2023/02/20 06:23:48;;;;;;;9.65;7.35;;;7.10;99.90;;;;;;5109222;28;20200;-83
2023/02/20 06:26:15;;;;;;;10.07;7.43;;;7.20;99.90;;;;;;5088225;28;20230;-83
2023/02/20 06:28:41;;;;;;;9.23;7.95;;;7.20;99.90;;;;;;5112160;28;20203;-82
2023/02/20 06:31:08;;;;;;;10.35;7.45;;;7.20;99.90;;;;;;5113973;28;20180;-82
2023/02/20 06:33:34;;;;;;;11.80;9.13;;;7.10;99.90;;;;;;5113906;28;20542;-83
2023/02/20 06:36:00;;;;;;;11.95;9.00;;;7.20;99.90;;;;;;5094470;28;20258;-83
2023/02/20 06:38:26;;;;;;;13.83;8.17;;;7.20;99.90;;;;;;5110129;28;20225;-83
2023/02/20 06:40:52;;;;;;;13.05;8.80;;;7.10;99.90;;;;;;5082106;28;20428;-82
2023/02/20 06:43:18;;;;;;;12.27;7.30;;;7.20;99.90;;;;;;5082761;28;20569;-83
2023/02/20 06:45:45;;;;;;;13.95;8.35;;;7.30;99.90;;;;;;5091544;28;20652;-82
2023/02/20 06:48:13;;;;;;;10.32;7.60;;;7.30;99.90;;;;;;5092322;28;20593;-83
2023/02/20 06:50:39;;;;;;;18.85;14.20;;;7.30;99.90;;;;;;5092184;28;20614;-83
2023/02/20 06:53:06;;;;;;;15.20;12.40;;;7.30;99.90;;;;;;5111546;28;20206;-83
2023/02/20 06:55:31;;;;;;;16.48;11.85;;;7.30;99.90;;;;;;5089268;28;20192;-83
2023/02/20 06:57:57;;;;;;;14.17;9.57;;;7.40;99.90;;;;;;5086167;28;20575;-83
2023/02/20 07:00:23;;;;;;;13.27;9.13;;;7.50;99.90;;;;;;5091074;28;20222;-83
2023/02/20 07:02:49;;;;;;;11.82;8.68;;;7.60;99.90;;;;;;5093438;28;20192;-83
2023/02/20 07:05:15;;;;;;;12.00;7.17;;;7.60;99.90;;;;;;5103950;28;20612;-83
2023/02/20 07:07:41;;;;;;;6.07;5.47;;;7.70;99.90;;;;;;5085270;28;20441;-83
2023/02/20 07:10:07;;;;;;;8.68;5.95;;;7.70;99.90;;;;;;5074624;28;20267;-83
2023/02/20 07:12:36;;;;;;;9.38;6.07;;;7.70;99.90;;;;;;5074781;28;20247;-83
2023/02/20 07:15:04;;;;;;;9.43;6.50;;;7.70;99.90;;;;;;5107691;28;20334;-82
2023/02/20 07:17:30;;;;;;;8.15;5.53;;;7.70;99.90;;;;;;5079652;28;20231;-83
2023/02/20 07:19:56;;;;;;;8.43;5.70;;;7.70;99.90;;;;;;5107004;28;20206;-83
2023/02/20 07:22:21;;;;;;;8.60;5.53;;;7.80;99.90;;;;;;5114380;28;20210;-83
2023/02/20 07:24:51;;;;;;;8.90;6.60;;;7.90;99.90;;;;;;5102520;28;20437;-83
2023/02/20 07:27:17;;;;;;;13.88;8.80;;;7.90;99.90;;;;;;5103407;28;20200;-83
2023/02/20 07:29:47;;;;;;;12.93;10.25;;;7.90;99.90;;;;;;5105324;28;20546;-82
2023/02/20 07:32:15;;;;;;;10.55;6.60;;;7.90;99.90;;;;;;5105402;28;20200;-82
2023/02/20 07:34:41;;;;;;;14.40;10.43;;;7.90;99.90;;;;;;5077403;28;20307;-83
2023/02/20 07:37:07;;;;;;;16.80;11.93;;;7.90;99.90;;;;;;5086713;28;20687;-83
2023/02/20 07:39:33;;;;;;;7.77;7.07;;;8.00;99.90;;;;;;5081607;28;20451;-83
2023/02/20 07:41:58;;;;;;;10.27;9.23;;;8.00;99.90;;;;;;5111860;28;20877;-82
2023/02/20 07:44:24;;;;;;;21.73;16.23;;;8.00;99.90;;;;;;5092317;28;20183;-83
2023/02/20 07:46:50;;;;;;;16.20;14.10;;;7.90;99.90;;;;;;5095382;28;20207;-83
2023/02/20 07:49:15;;;;;;;5.73;4.50;;;8.00;99.90;;;;;;5096421;28;20188;-82
2023/02/20 07:51:41;;;;;;;7.20;5.00;;;8.10;99.90;;;;;;5064523;28;20222;-83
2023/02/20 07:54:07;;;;;;;10.93;9.53;;;8.20;99.90;;;;;;5062840;28;20294;-83
2023/02/20 07:56:33;;;;;;;13.43;11.30;;;8.30;99.90;;;;;;5083815;28;20186;-82
2023/02/20 07:58:58;;;;;;;12.43;9.50;;;8.20;99.90;;;;;;5066420;28;20498;-83
2023/02/20 08:01:24;;;;;;;8.07;7.10;;;8.30;99.90;;;;;;5064738;28;20330;-83
2023/02/20 08:03:50;;;;;;;10.07;6.60;;;8.20;99.90;;;;;;5082787;28;20496;-83
2023/02/20 08:06:18;;;;;;;8.30;5.20;;;8.10;99.90;;;;;;5084818;28;20633;-83
2023/02/20 08:08:51;;;;;;;10.65;7.35;;;8.10;99.90;;;;;;5084051;28;20286;-82
2023/02/20 08:11:19;;;;;;;46.45;26.27;;;8.20;99.90;;;;;;5067744;28;20705;-83
2023/02/20 08:13:45;;;;;;;47.95;32.55;;;8.20;99.90;;;;;;5082744;28;20307;-83
2023/02/20 08:16:11;;;;;;;14.40;9.43;;;8.20;99.90;;;;;;5083255;28;20183;-83
2023/02/20 08:18:37;;;;;;;6.63;5.93;;;8.20;99.90;;;;;;5067536;28;20462;-83
2023/02/20 08:21:03;;;;;;;5.53;4.30;;;8.30;99.90;;;;;;5084303;28;20896;-83
2023/02/20 08:23:29;;;;;;;5.37;4.30;;;8.40;99.90;;;;;;5067997;28;20208;-83
2023/02/20 08:25:54;;;;;;;5.93;4.60;;;8.60;99.90;;;;;;5084683;28;20871;-83
2023/02/20 08:28:20;;;;;;;6.63;4.83;;;8.60;99.90;;;;;;5065269;28;20556;-83
2023/02/20 08:30:46;;;;;;;5.28;4.47;;;8.60;99.90;;;;;;5082407;28;20179;-83
2023/02/20 08:33:13;;;;;;;12.23;8.20;;;8.60;99.90;;;;;;5061363;28;20712;-83
2023/02/20 08:35:38;;;;;;;12.00;9.68;;;8.70;99.90;;;;;;5063939;28;20236;-83
2023/02/20 08:38:06;;;;;;;5.47;4.00;;;8.70;99.90;;;;;;5081668;28;20204;-83
2023/02/20 08:40:32;;;;;;;7.95;6.25;;;8.70;99.90;;;;;;5062644;28;20234;-83
2023/02/20 08:42:58;;;;;;;5.17;3.77;;;8.80;99.90;;;;;;5066088;28;20195;-83
2023/02/20 08:45:24;;;;;;;6.93;4.00;;;8.90;99.90;;;;;;5080441;28;20424;-82
2023/02/20 08:47:50;;;;;;;5.37;3.13;;;8.90;99.90;;;;;;5080702;28;21082;-83
2023/02/20 08:50:18;;;;;;;5.60;3.80;;;9.00;99.90;;;;;;5060023;28;20398;-83
2023/02/20 08:52:44;;;;;;;11.20;8.75;;;9.10;99.90;;;;;;5066539;28;20204;-83
2023/02/20 08:55:11;;;;;;;6.05;4.15;;;9.10;99.90;;;;;;5081447;28;20230;-83
2023/02/20 08:57:36;;;;;;;6.25;4.80;;;9.10;99.90;;;;;;5063832;28;20200;-83
2023/02/20 09:00:04;;;;;;;6.33;4.43;;;9.20;99.90;;;;;;5062871;28;20191;-83
2023/02/20 09:02:30;;;;;;;3.80;3.17;;;9.30;99.90;;;;;;5081267;28;20774;-83
2023/02/20 09:04:59;;;;;;;3.80;3.40;;;9.30;99.90;;;;;;5062748;28;20468;-83
2023/02/20 09:07:25;;;;;;;5.45;2.67;;;9.40;99.90;;;;;;5081361;28;20216;-84
2023/02/20 09:09:51;;;;;;;6.40;2.93;;;9.50;99.90;;;;;;5079672;28;20186;-83
2023/02/20 09:12:17;;;;;;;5.57;3.40;;;9.50;99.90;;;;;;5086002;28;20629;-84
2023/02/20 09:14:43;;;;;;;4.28;3.88;;;9.80;99.90;;;;;;5080394;28;20586;-83
2023/02/20 09:17:09;;;;;;;7.23;5.40;;;10.50;99.90;;;;;;5065712;28;20212;-83
2023/02/20 09:19:36;;;;;;;6.72;6.03;;;11.40;99.90;;;;;;5065508;28;20513;-84
2023/02/20 09:22:02;;;;;;;14.10;12.20;;;11.90;99.90;;;;;;5061556;28;20322;-84
2023/02/20 09:24:32;;;;;;;6.90;4.85;;;12.30;99.90;;;;;;5064262;28;20928;-84
2023/02/20 09:27:01;;;;;;;5.03;3.63;;;12.80;99.50;;;;;;5103125;28;20183;-84
2023/02/20 09:29:27;;;;;;;10.27;9.20;;;13.40;99.20;;;;;;5094326;28;20411;-85
2023/02/20 09:31:53;;;;;;;5.10;3.80;;;14.20;97.70;;;;;;5087452;28;20417;-84
2023/02/20 09:34:20;;;;;;;6.70;4.73;;;14.60;96.30;;;;;;5078276;28;20649;-85
2023/02/20 09:36:46;;;;;;;6.17;3.53;;;15.10;95.60;;;;;;5094458;28;20423;-85
2023/02/20 09:39:16;;;;;;;4.70;3.20;;;15.70;94.70;;;;;;5105471;28;20527;-84
2023/02/20 09:42:00;;;;;;;3.90;3.50;;;15.60;93.00;;;;;;5099814;28;20835;-84
2023/02/20 09:44:55;;;;;;;4.70;2.60;;;16.00;93.70;;;;;;5079128;28;20444;-84
2023/02/20 09:47:42;;;;;;;4.03;3.10;;;16.20;91.90;;;;;;5057834;28;20451;-83
2023/02/20 09:50:30;;;;;;;4.40;4.00;;;16.70;92.20;;;;;;5092130;28;20436;-84
2023/02/20 09:53:30;;;;;;;3.27;2.97;;;16.90;90.90;;;;;;5087375;28;20443;-84
2023/02/20 09:55:58;;;;;;;7.00;2.90;;;17.20;90.80;;;;;;5100085;28;20433;-85
2023/02/20 09:58:31;;;;;;;6.40;2.87;;;17.50;90.20;;;;;;5102881;28;20456;-85
2023/02/20 10:01:01;;;;;;;3.90;3.60;;;17.80;89.40;;;;;;5110866;28;20397;-84
2023/02/20 10:03:39;;;;;;;5.83;3.67;;;18.10;88.90;;;;;;5086067;28;20485;-85
2023/02/20 10:06:16;;;;;;;9.50;3.83;;;18.40;87.50;;;;;;5079604;28;20437;-84
2023/02/20 10:08:42;;;;;;;2.53;2.33;;;18.20;85.50;;;;;;5076550;28;20805;-85
2023/02/20 10:11:11;;;;;;;5.20;3.57;;;17.20;86.70;;;;;;5094608;28;20910;-84
2023/02/20 10:13:51;;;;;;;8.97;4.80;;;17.00;87.00;;;;;;5084350;28;20552;-83
2023/02/20 10:16:31;;;;;;;5.40;4.87;;;16.60;87.20;;;;;;5108898;28;20408;-85
2023/02/20 10:19:15;;;;;;;3.00;2.70;;;16.80;87.70;;;;;;5080936;28;20820;-84
2023/02/20 10:21:41;;;;;;;7.27;5.67;;;16.90;87.30;;;;;;5095676;28;20432;-84
2023/02/20 10:24:34;;;;;;;11.20;6.83;;;16.60;87.20;;;;;;5071282;28;20440;-85
2023/02/20 10:27:29;;;;;;;6.77;6.07;;;16.10;87.70;;;;;;5070416;28;20204;-85
2023/02/20 10:29:57;;;;;;;3.93;2.80;;;15.80;89.50;;;;;;5064641;28;20791;-85
2023/02/20 10:32:57;;;;;;;4.60;2.73;;;15.80;90.10;;;;;;5090917;28;20440;-85
2023/02/20 10:35:33;;;;;;;4.10;3.70;;;15.90;89.60;;;;;;5092405;28;20439;-84
2023/02/20 10:38:06;;;;;;;4.97;2.90;;;15.90;90.10;;;;;;5106619;28;20528;-84
2023/02/20 10:40:39;;;;;;;3.20;2.90;;;15.80;90.00;;;;;;5110101;28;20491;-84
2023/02/20 10:43:49;;;;;;;4.30;3.43;;;15.70;89.70;;;;;;5092916;28;20440;-85
2023/02/20 10:46:42;;;;;;;4.83;2.77;;;15.60;90.20;;;;;;5026551;28;20557;-85
2023/02/20 10:49:15;;;;;;;5.60;2.80;;;15.70;90.30;;;;;;5089864;28;20463;-84
2023/02/20 10:51:44;;;;;;;4.50;3.03;;;15.70;90.40;;;;;;5087087;28;20416;-84
2023/02/20 10:54:24;;;;;;;4.87;3.70;;;15.80;89.80;;;;;;5080676;28;21014;-84
2023/02/20 10:56:58;;;;;;;2.80;2.53;;;15.70;90.40;;;;;;5099990;28;20427;-85
2023/02/20 10:59:51;;;;;;;4.40;3.20;;;15.50;90.40;;;;;;5104608;28;20447;-85
2023/02/20 11:02:21;;;;;;;3.37;3.07;;;15.20;90.90;;;;;;5085763;28;20461;-85
2023/02/20 11:05:02;;;;;;;8.00;7.23;;;14.90;90.70;;;;;;5071721;28;20416;-83
2023/02/20 11:07:28;;;;;;;4.00;3.10;;;14.80;91.50;;;;;;5103489;28;20445;-85
2023/02/20 11:09:54;;;;;;;3.67;1.90;;;14.80;91.60;;;;;;5101420;28;20444;-85
2023/02/20 11:12:28;;;;;;;3.57;2.13;;;14.70;91.60;;;;;;5087532;28;20294;-85
2023/02/20 11:15:00;;;;;;;4.30;2.90;;;14.70;91.80;;;;;;5097232;28;20536;-85
2023/02/20 11:17:28;;;;;;;2.80;2.40;;;14.70;92.40;;;;;;5103696;28;20455;-85
2023/02/20 11:19:56;;;;;;;8.10;6.50;;;14.80;92.60;;;;;;5107968;28;20926;-84
2023/02/20 11:22:43;;;;;;;2.93;2.40;;;14.80;92.30;;;;;;5103907;28;20787;-84
2023/02/20 11:25:20;;;;;;;3.57;2.77;;;14.80;92.00;;;;;;5087519;28;20493;-84
2023/02/20 11:27:49;;;;;;;2.47;2.00;;;14.80;92.00;;;;;;5093606;28;20455;-86
2023/02/20 11:30:31;;;;;;;2.80;2.17;;;14.90;92.00;;;;;;5106811;28;20420;-86
2023/02/20 11:33:20;;;;;;;2.30;1.73;;;14.90;92.20;;;;;;5078515;28;20570;-85
2023/02/20 11:35:54;;;;;;;3.33;1.93;;;14.90;92.60;;;;;;5097792;28;20456;-85
2023/02/20 11:38:20;;;;;;;3.53;2.63;;;15.00;93.10;;;;;;5103025;28;20444;-84
2023/02/20 11:40:59;;;;;;;6.67;3.03;;;15.20;92.40;;;;;;5089005;28;20440;-84
2023/02/20 11:43:29;;;;;;;2.43;2.20;;;15.20;92.60;;;;;;5089385;28;20716;-84
2023/02/20 11:46:21;;;;;;;3.40;2.97;;;15.20;92.80;;;;;;5082532;28;20425;-83
2023/02/20 11:48:53;;;;;;;3.17;2.23;;;15.10;92.60;;;;;;5076840;28;20473;-85
2023/02/20 11:51:43;;;;;;;2.60;2.20;;;15.00;92.80;;;;;;5098336;28;20432;-83
2023/02/20 11:54:28;;;;;;;2.00;1.57;;;15.00;92.90;;;;;;5100136;28;20471;-85
2023/02/20 11:56:57;;;;;;;3.80;2.30;;;15.00;93.00;;;;;;5080225;28;20801;-84
2023/02/20 11:59:36;;;;;;;4.03;3.50;;;15.00;93.20;;;;;;5088579;28;20782;-84
2023/02/20 12:02:14;;;;;;;2.60;2.40;;;14.90;93.20;;;;;;5101992;28;20443;-84
2023/02/20 12:04:44;;;;;;;2.47;2.27;;;14.80;93.40;;;;;;5080421;28;21092;-85
2023/02/20 12:07:22;;;;;;;5.03;3.00;;;14.80;94.00;;;;;;5083632;28;20567;-84
2023/02/20 12:09:51;;;;;;;3.20;2.50;;;14.90;94.40;;;;;;5100879;28;20452;-83
2023/02/20 12:12:22;;;;;;;2.77;2.50;;;14.90;94.40;;;;;;5089384;28;20794;-85
2023/02/20 12:14:49;;;;;;;4.37;2.57;;;14.90;94.50;;;;;;5084224;28;20503;-84
2023/02/20 12:17:36;;;;;;;2.57;2.30;;;14.90;94.80;;;;;;5088505;28;20440;-86
2023/02/20 12:20:06;;;;;;;3.67;2.60;;;14.80;95.00;;;;;;5080407;28;20449;-85
2023/02/20 12:22:36;;;;;;;3.10;2.67;;;14.80;95.00;;;;;;5088054;28;21200;-85
2023/02/20 12:25:23;;;;;;;2.70;2.50;;;15.00;95.90;;;;;;5109350;28;20524;-84
2023/02/20 12:28:22;;;;;;;2.20;2.00;;;15.10;95.50;;;;;;5086874;28;20458;-85
2023/02/20 12:31:23;;;;;;;5.10;2.33;;;15.30;95.70;;;;;;5091327;28;20467;-85
2023/02/20 12:34:18;;;;;;;5.37;4.93;;;15.50;94.80;;;;;;5092889;28;20833;-85
2023/02/20 12:37:11;;;;;;;4.27;2.50;;;15.40;94.70;;;;;;5084399;28;20896;-85
2023/02/20 12:40:02;;;;;;;2.40;2.20;;;15.50;94.60;;;;;;5053368;28;20928;-86
2023/02/20 12:42:40;;;;;;;4.23;3.93;;;15.50;94.60;;;;;;5112707;28;20448;-82
2023/02/20 12:45:22;;;;;;;3.40;2.43;;;15.40;94.80;;;;;;5091875;28;20872;-84
2023/02/20 12:47:57;;;;;;;2.17;1.97;;;15.40;95.00;;;;;;5103736;28;20890;-84
2023/02/20 12:50:47;;;;;;;5.00;2.97;;;15.50;94.80;;;;;;5082186;28;20533;-83
2023/02/20 12:53:48;;;;;;;2.67;2.03;;;15.60;95.00;;;;;;5091727;28;20452;-84
2023/02/20 12:56:38;;;;;;;4.57;3.87;;;15.50;94.60;;;;;;5071134;28;20445;-83
2023/02/20 12:59:30;;;;;;;3.00;2.70;;;15.40;94.80;;;;;;5101491;28;20968;-84
2023/02/20 13:02:08;;;;;;;5.43;4.93;;;15.20;95.00;;;;;;5102680;28;20496;-82
2023/02/20 13:04:55;;;;;;;3.37;2.80;;;15.20;95.50;;;;;;5104485;27;20497;-82
2023/02/20 13:07:39;;;;;;;4.07;3.30;;;15.30;95.60;;;;;;5081931;28;20463;-85
2023/02/20 13:10:19;;;;;;;8.00;4.03;;;15.40;95.20;;;;;;5085450;28;20429;-84
2023/02/20 13:12:47;;;;;;;8.13;4.40;;;15.20;95.00;;;;;;5098328;28;20860;-84
2023/02/20 13:15:24;;;;;;;4.70;4.20;;;15.00;95.10;;;;;;5085083;28;20492;-82
2023/02/20 13:18:16;;;;;;;7.87;5.30;;;14.90;95.40;;;;;;5087653;28;21058;-83
2023/02/20 13:20:56;;;;;;;5.50;4.03;;;14.90;95.40;;;;;;5085041;28;20482;-84
2023/02/20 13:23:21;;;;;;;7.10;5.07;;;14.90;95.60;;;;;;5085484;28;20522;-84
2023/02/20 13:25:49;;;;;;;5.40;4.90;;;14.90;96.20;;;;;;5081064;28;20440;-83
2023/02/20 13:28:41;;;;;;;7.13;4.60;;;15.00;95.60;;;;;;5108445;27;20653;-85
2023/02/20 13:31:18;;;;;;;5.90;4.27;;;15.10;95.60;;;;;;5082096;28;20806;-85